sensor_id;sensor_type;location;lat;lon;timestamp;pressure;altitude;pressure_sealevel;temperature;humidity
16194;BME280;8204;53.582;10.080;2022-10-03T00:04:42;99349.25;;;14.41;100.00
16194;BME280;8204;53.582;10.080;2022-10-03T00:07:29;99359.78;;;14.41;100.00
16194;BME280;8204;53.582;10.080;2022-10-03T00:10:12;99358.63;;;14.37;100.00
16194;BME280;8204;53.582;10.080;2022-10-03T00:13:00;99371.94;;;14.42;100.00
16194;BME280;8204;53.582;10.080;2022-10-03T00:15:42;99375.69;;;14.35;100.00
16194;BME280;8204;53.582;10.080;2022-10-03T00:18:18;99373.66;;;14.37;100.00
16194;BME280;8204;53.582;10.080;2022-10-03T00:21:05;99383.13;;;14.38;100.00
16194;BME280;8204;53.582;10.080;2022-10-03T00:23:43;99382.78;;;14.34;100.00
16194;BME280;8204;53.582;10.080;2022-10-03T00:26:19;99392.72;;;14.32;100.00
16194;BME280;8204;53.582;10.080;2022-10-03T00:29:11;99387.88;;;14.29;100.00
16194;BME280;8204;53.582;10.080;2022-10-03T00:31:52;99395.78;;;14.29;100.00
16194;BME280;8204;53.582;10.080;2022-10-03T00:34:31;99397.63;;;14.29;100.00
16194;BME280;8204;53.582;10.080;2022-10-03T00:37:17;99392.13;;;14.30;100.00
16194;BME280;8204;53.582;10.080;2022-10-03T00:40:18;99394.34;;;14.33;100.00
16194;BME280;8204;53.582;10.080;2022-10-03T00:46:19;99404.44;;;14.36;100.00
16194;BME280;8204;53.582;10.080;2022-10-03T00:49:17;99402.25;;;14.33;100.00
16194;BME280;8204;53.582;10.080;2022-10-03T00:52:00;99407.06;;;14.36;100.00
16194;BME280;8204;53.582;10.080;2022-10-03T00:54:43;99411.78;;;14.34;100.00
16194;BME280;8204;53.582;10.080;2022-10-03T00:57:27;99412.34;;;14.36;100.00
16194;BME280;8204;53.582;10.080;2022-10-03T01:00:12;99417.03;;;14.34;100.00
16194;BME280;8204;53.582;10.080;2022-10-03T01:03:07;99414.41;;;14.34;100.00
16194;BME280;8204;53.582;10.080;2022-10-03T01:05:48;99417.03;;;14.34;100.00
16194;BME280;8204;53.582;10.080;2022-10-03T01:08:30;99412.13;;;14.38;100.00
16194;BME280;8204;53.582;10.080;2022-10-03T01:11:12;99419.00;;;14.39;100.00
16194;BME280;8204;53.582;10.080;2022-10-03T01:13:53;99431.03;;;14.35;100.00
16194;BME280;8204;53.582;10.080;2022-10-03T01:16:33;99432.25;;;14.32;100.00
16194;BME280;8204;53.582;10.080;2022-10-03T01:19:26;99428.31;;;14.41;100.00
16194;BME280;8204;53.582;10.080;2022-10-03T01:22:16;99438.44;;;14.44;100.00
16194;BME280;8204;53.582;10.080;2022-10-03T01:24:53;99435.81;;;14.44;100.00
16194;BME280;8204;53.582;10.080;2022-10-03T01:27:35;99440.06;;;14.45;100.00
16194;BME280;8204;53.582;10.080;2022-10-03T01:30:37;99447.97;;;14.45;100.00
16194;BME280;8204;53.582;10.080;2022-10-03T01:33:09;99454.25;;;14.44;100.00
16194;BME280;8204;53.582;10.080;2022-10-03T01:35:48;99460.72;;;14.48;100.00
16194;BME280;8204;53.582;10.080;2022-10-03T01:38:24;99456.91;;;14.44;100.00
16194;BME280;8204;53.582;10.080;2022-10-03T01:40:58;99464.81;;;14.44;100.00
16194;BME280;8204;53.582;10.080;2022-10-03T01:43:35;99460.31;;;14.45;100.00
16194;BME280;8204;53.582;10.080;2022-10-03T01:46:14;99463.94;;;14.50;100.00
16194;BME280;8204;53.582;10.080;2022-10-03T01:48:51;99469.28;;;14.44;100.00
16194;BME280;8204;53.582;10.080;2022-10-03T01:51:27;99470.88;;;14.45;100.00
16194;BME280;8204;53.582;10.080;2022-10-03T01:54:07;99476.34;;;14.50;100.00
16194;BME280;8204;53.582;10.080;2022-10-03T01:56:45;99481.03;;;14.41;100.00
16194;BME280;8204;53.582;10.080;2022-10-03T01:59:23;99471.53;;;14.40;100.00
16194;BME280;8204;53.582;10.080;2022-10-03T02:02:03;99483.28;;;14.38;100.00
16194;BME280;8204;53.582;10.080;2022-10-03T02:04:42;99498.53;;;14.29;100.00
16194;BME280;8204;53.582;10.080;2022-10-03T02:07:19;99501.44;;;14.21;100.00
16194;BME280;8204;53.582;10.080;2022-10-03T02:09:59;99508.53;;;14.21;100.00
16194;BME280;8204;53.582;10.080;2022-10-03T02:12:35;99508.75;;;14.19;100.00
16194;BME280;8204;53.582;10.080;2022-10-03T02:15:15;99512.41;;;14.18;100.00
16194;BME280;8204;53.582;10.080;2022-10-03T02:17:54;99519.13;;;14.14;100.00
16194;BME280;8204;53.582;10.080;2022-10-03T02:20:31;99518.06;;;14.15;100.00
16194;BME280;8204;53.582;10.080;2022-10-03T02:23:23;99521.94;;;14.13;100.00
16194;BME280;8204;53.582;10.080;2022-10-03T02:26:02;99521.53;;;14.09;100.00
16194;BME280;8204;53.582;10.080;2022-10-03T02:28:50;99523.78;;;14.12;100.00
16194;BME280;8204;53.582;10.080;2022-10-03T02:31:48;99528.88;;;14.01;100.00
16194;BME280;8204;53.582;10.080;2022-10-03T02:34:35;99538.38;;;14.02;100.00
16194;BME280;8204;53.582;10.080;2022-10-03T02:37:37;99538.78;;;14.05;100.00
16194;BME280;8204;53.582;10.080;2022-10-03T02:40:50;99543.66;;;13.95;100.00
16194;BME280;8204;53.582;10.080;2022-10-03T02:43:52;99553.00;;;13.91;100.00
16194;BME280;8204;53.582;10.080;2022-10-03T02:49:50;99559.50;;;13.89;100.00
16194;BME280;8204;53.582;10.080;2022-10-03T02:55:38;99569.88;;;13.84;100.00
16194;BME280;8204;53.582;10.080;2022-10-03T02:58:37;99566.00;;;13.86;100.00
16194;BME280;8204;53.582;10.080;2022-10-03T03:01:35;99569.47;;;13.81;100.00
16194;BME280;8204;53.582;10.080;2022-10-03T03:04:28;99574.13;;;13.79;100.00
16194;BME280;8204;53.582;10.080;2022-10-03T03:07:28;99576.97;;;13.77;100.00
16194;BME280;8204;53.582;10.080;2022-10-03T03:10:27;99577.38;;;13.81;100.00
16194;BME280;8204;53.582;10.080;2022-10-03T03:13:24;99584.03;;;13.77;100.00
16194;BME280;8204;53.582;10.080;2022-10-03T03:19:17;99594.59;;;13.70;100.00
16194;BME280;8204;53.582;10.080;2022-10-03T03:21:57;99595.41;;;13.71;100.00
16194;BME280;8204;53.582;10.080;2022-10-03T03:24:44;99606.16;;;13.63;100.00
16194;BME280;8204;53.582;10.080;2022-10-03T03:27:37;99608.78;;;13.63;100.00
16194;BME280;8204;53.582;10.080;2022-10-03T03:30:13;99611.22;;;13.58;100.00
16194;BME280;8204;53.582;10.080;2022-10-03T03:32:54;99617.09;;;13.60;100.00
16194;BME280;8204;53.582;10.080;2022-10-03T03:35:36;99610.03;;;13.54;100.00
16194;BME280;8204;53.582;10.080;2022-10-03T03:38:19;99617.50;;;13.57;100.00
16194;BME280;8204;53.582;10.080;2022-10-03T03:41:11;99621.16;;;13.56;100.00
16194;BME280;8204;53.582;10.080;2022-10-03T03:44:02;99624.81;;;13.55;100.00
16194;BME280;8204;53.582;10.080;2022-10-03T03:46:48;99630.47;;;13.52;100.00
16194;BME280;8204;53.582;10.080;2022-10-03T03:49:30;99647.06;;;13.46;100.00
16194;BME280;8204;53.582;10.080;2022-10-03T03:52:20;99644.66;;;13.44;100.00
16194;BME280;8204;53.582;10.080;2022-10-03T03:55:15;99635.94;;;13.44;100.00
16194;BME280;8204;53.582;10.080;2022-10-03T03:58:07;99635.53;;;13.47;100.00
16194;BME280;8204;53.582;10.080;2022-10-03T04:00:53;99632.47;;;13.50;100.00
16194;BME280;8204;53.582;10.080;2022-10-03T04:03:36;99635.72;;;13.52;100.00
16194;BME280;8204;53.582;10.080;2022-10-03T04:06:27;99646.47;;;13.44;100.00
16194;BME280;8204;53.582;10.080;2022-10-03T04:12:11;99657.38;;;13.47;100.00
16194;BME280;8204;53.582;10.080;2022-10-03T04:14:58;99656.81;;;13.45;100.00
16194;BME280;8204;53.582;10.080;2022-10-03T04:17:53;99660.03;;;13.41;100.00
16194;BME280;8204;53.582;10.080;2022-10-03T04:20:51;99657.81;;;13.44;100.00
16194;BME280;8204;53.582;10.080;2022-10-03T04:26:23;99672.78;;;13.37;100.00
16194;BME280;8204;53.582;10.080;2022-10-03T04:29:26;99668.31;;;13.38;100.00
16194;BME280;8204;53.582;10.080;2022-10-03T04:32:14;99666.13;;;13.35;100.00
16194;BME280;8204;53.582;10.080;2022-10-03T04:34:56;99678.25;;;13.36;100.00
16194;BME280;8204;53.582;10.080;2022-10-03T04:37:39;99683.28;;;13.31;100.00
16194;BME280;8204;53.582;10.080;2022-10-03T04:40:24;99679.06;;;13.30;100.00
16194;BME280;8204;53.582;10.080;2022-10-03T04:43:03;99681.09;;;13.28;100.00
16194;BME280;8204;53.582;10.080;2022-10-03T04:45:42;99689.59;;;13.30;100.00
16194;BME280;8204;53.582;10.080;2022-10-03T04:48:23;99693.81;;;13.31;100.00
16194;BME280;8204;53.582;10.080;2022-10-03T04:51:04;99692.63;;;13.27;100.00
16194;BME280;8204;53.582;10.080;2022-10-03T04:53:43;99703.75;;;13.29;100.00
16194;BME280;8204;53.582;10.080;2022-10-03T04:56:37;99702.50;;;13.25;100.00
16194;BME280;8204;53.582;10.080;2022-10-03T04:59:22;99701.72;;;13.24;100.00
16194;BME280;8204;53.582;10.080;2022-10-03T05:01:57;99709.81;;;13.23;100.00
16194;BME280;8204;53.582;10.080;2022-10-03T05:04:35;99722.97;;;13.23;100.00
16194;BME280;8204;53.582;10.080;2022-10-03T05:07:11;99729.81;;;13.24;100.00
16194;BME280;8204;53.582;10.080;2022-10-03T05:09:49;99731.25;;;13.20;100.00
16194;BME280;8204;53.582;10.080;2022-10-03T05:12:30;99735.91;;;13.24;100.00
16194;BME280;8204;53.582;10.080;2022-10-03T05:15:15;99735.72;;;13.26;100.00
16194;BME280;8204;53.582;10.080;2022-10-03T05:17:54;99736.94;;;13.23;100.00
16194;BME280;8204;53.582;10.080;2022-10-03T05:20:43;99746.66;;;13.23;100.00
16194;BME280;8204;53.582;10.080;2022-10-03T05:23:24;99744.03;;;13.23;100.00
16194;BME280;8204;53.582;10.080;2022-10-03T05:26:03;99757.97;;;13.23;100.00
16194;BME280;8204;53.582;10.080;2022-10-03T05:28:40;99766.28;;;13.27;100.00
16194;BME280;8204;53.582;10.080;2022-10-03T05:31:22;99756.75;;;13.26;100.00
16194;BME280;8204;53.582;10.080;2022-10-03T05:34:01;99764.44;;;13.21;100.00
16194;BME280;8204;53.582;10.080;2022-10-03T05:36:50;99768.06;;;13.20;100.00
16194;BME280;8204;53.582;10.080;2022-10-03T05:39:26;99768.69;;;13.22;100.00
16194;BME280;8204;53.582;10.080;2022-10-03T05:42:10;99775.56;;;13.16;100.00
16194;BME280;8204;53.582;10.080;2022-10-03T05:44:42;99774.97;;;13.21;100.00
16194;BME280;8204;53.582;10.080;2022-10-03T05:47:22;99781.44;;;13.25;100.00
16194;BME280;8204;53.582;10.080;2022-10-03T05:53:35;99792.38;;;13.22;100.00
16194;BME280;8204;53.582;10.080;2022-10-03T05:56:19;99794.00;;;13.29;100.00
16194;BME280;8204;53.582;10.080;2022-10-03T05:59:18;99785.91;;;13.31;100.00
16194;BME280;8204;53.582;10.080;2022-10-03T06:05:10;99801.47;;;13.26;100.00
16194;BME280;8204;53.582;10.080;2022-10-03T06:07:56;99803.09;;;13.27;100.00
16194;BME280;8204;53.582;10.080;2022-10-03T06:10:51;99798.69;;;13.34;100.00
16194;BME280;8204;53.582;10.080;2022-10-03T06:13:36;99802.72;;;13.30;100.00
16194;BME280;8204;53.582;10.080;2022-10-03T06:16:19;99807.78;;;13.38;100.00
16194;BME280;8204;53.582;10.080;2022-10-03T06:19:15;99800.94;;;13.43;100.00
16194;BME280;8204;53.582;10.080;2022-10-03T06:31:30;99802.97;;;13.61;100.00
16194;BME280;8204;53.582;10.080;2022-10-03T06:40:43;99802.59;;;13.77;100.00
16194;BME280;8204;53.582;10.080;2022-10-03T06:43:50;99804.44;;;13.89;100.00
16194;BME280;8204;53.582;10.080;2022-10-03T06:50:15;99800.78;;;14.03;100.00
16194;BME280;8204;53.582;10.080;2022-10-03T06:53:20;99795.50;;;14.09;100.00
16194;BME280;8204;53.582;10.080;2022-10-03T06:56:15;99803.03;;;14.12;100.00
16194;BME280;8204;53.582;10.080;2022-10-03T06:59:12;99789.66;;;14.20;100.00
16194;BME280;8204;53.582;10.080;2022-10-03T07:08:19;99784.16;;;14.28;100.00
16194;BME280;8204;53.582;10.080;2022-10-03T07:11:04;99795.75;;;14.27;100.00
16194;BME280;8204;53.582;10.080;2022-10-03T07:13:56;99798.16;;;14.29;100.00
16194;BME280;8204;53.582;10.080;2022-10-03T07:16:53;99783.16;;;14.36;100.00
16194;BME280;8204;53.582;10.080;2022-10-03T07:19:48;99786.19;;;14.39;100.00
16194;BME280;8204;53.582;10.080;2022-10-03T07:25:40;99794.06;;;14.52;100.00
16194;BME280;8204;53.582;10.080;2022-10-03T07:28:43;99788.56;;;14.54;100.00
16194;BME280;8204;53.582;10.080;2022-10-03T07:31:28;99797.50;;;14.53;100.00
16194;BME280;8204;53.582;10.080;2022-10-03T07:34:39;99780.63;;;14.66;100.00
16194;BME280;8204;53.582;10.080;2022-10-03T07:37:26;99789.78;;;14.64;100.00
16194;BME280;8204;53.582;10.080;2022-10-03T07:46:45;99796.84;;;14.76;100.00
16194;BME280;8204;53.582;10.080;2022-10-03T07:49:44;99801.06;;;14.77;100.00
16194;BME280;8204;53.582;10.080;2022-10-03T07:52:50;99796.81;;;14.83;100.00
16194;BME280;8204;53.582;10.080;2022-10-03T07:55:34;99792.72;;;14.87;100.00
16194;BME280;8204;53.582;10.080;2022-10-03T07:58:41;99795.34;;;14.93;100.00
16194;BME280;8204;53.582;10.080;2022-10-03T08:01:26;99792.28;;;14.96;100.00
16194;BME280;8204;53.582;10.080;2022-10-03T08:07:07;99790.56;;;15.15;100.00
16194;BME280;8204;53.582;10.080;2022-10-03T08:09:52;99797.47;;;15.16;100.00
16194;BME280;8204;53.582;10.080;2022-10-03T08:12:32;99799.09;;;15.17;100.00
16194;BME280;8204;53.582;10.080;2022-10-03T08:15:21;99797.66;;;15.27;100.00
16194;BME280;8204;53.582;10.080;2022-10-03T08:21:02;99782.72;;;15.45;100.00
16194;BME280;8204;53.582;10.080;2022-10-03T08:24:03;99789.19;;;15.49;100.00
16194;BME280;8204;53.582;10.080;2022-10-03T08:26:52;99776.53;;;15.58;100.00
16194;BME280;8204;53.582;10.080;2022-10-03T08:29:45;99772.25;;;15.63;100.00
16194;BME280;8204;53.582;10.080;2022-10-03T08:32:40;99770.78;;;15.67;100.00
16194;BME280;8204;53.582;10.080;2022-10-03T08:44:37;99782.00;;;15.87;100.00
16194;BME280;8204;53.582;10.080;2022-10-03T08:47:24;99777.91;;;15.91;100.00
16194;BME280;8204;53.582;10.080;2022-10-03T08:50:16;99773.81;;;15.95;100.00
16194;BME280;8204;53.582;10.080;2022-10-03T08:55:58;99756.97;;;16.14;100.00
16194;BME280;8204;53.582;10.080;2022-10-03T08:59:07;99753.41;;;16.26;100.00
16194;BME280;8204;53.582;10.080;2022-10-03T09:08:02;99763.22;;;16.44;100.00
16194;BME280;8204;53.582;10.080;2022-10-03T09:10:58;99759.25;;;16.53;100.00
16194;BME280;8204;53.582;10.080;2022-10-03T09:14:02;99751.69;;;16.56;100.00
16194;BME280;8204;53.582;10.080;2022-10-03T09:16:58;99749.41;;;16.60;100.00
16194;BME280;8204;53.582;10.080;2022-10-03T09:19:51;99763.38;;;16.67;100.00
16194;BME280;8204;53.582;10.080;2022-10-03T09:22:42;99762.34;;;16.68;100.00
16194;BME280;8204;53.582;10.080;2022-10-03T09:25:33;99761.53;;;16.67;100.00
16194;BME280;8204;53.582;10.080;2022-10-03T09:28:34;99756.91;;;16.63;100.00
16194;BME280;8204;53.582;10.080;2022-10-03T09:31:28;99763.50;;;16.72;100.00
16194;BME280;8204;53.582;10.080;2022-10-03T09:34:25;99761.16;;;16.64;100.00
16194;BME280;8204;53.582;10.080;2022-10-03T09:37:36;99769.41;;;16.74;100.00
16194;BME280;8204;53.582;10.080;2022-10-03T09:40:43;99759.25;;;16.71;100.00
16194;BME280;8204;53.582;10.080;2022-10-03T09:43:58;99757.78;;;16.75;100.00
16194;BME280;8204;53.582;10.080;2022-10-03T09:46:54;99759.56;;;16.81;100.00
16194;BME280;8204;53.582;10.080;2022-10-03T09:53:21;99738.28;;;16.87;100.00
16194;BME280;8204;53.582;10.080;2022-10-03T09:59:07;99746.06;;;17.00;100.00
16194;BME280;8204;53.582;10.080;2022-10-03T10:01:43;99751.84;;;17.08;100.00
16194;BME280;8204;53.582;10.080;2022-10-03T10:04:39;99747.28;;;17.15;100.00
16194;BME280;8204;53.582;10.080;2022-10-03T10:07:34;99745.13;;;17.24;100.00
16194;BME280;8204;53.582;10.080;2022-10-03T10:10:42;99740.22;;;17.27;100.00
16194;BME280;8204;53.582;10.080;2022-10-03T10:16:31;99729.34;;;17.47;100.00
16194;BME280;8204;53.582;10.080;2022-10-03T10:19:18;99735.97;;;17.38;100.00
16194;BME280;8204;53.582;10.080;2022-10-03T10:22:03;99716.75;;;17.42;100.00
16194;BME280;8204;53.582;10.080;2022-10-03T10:31:04;99696.28;;;17.49;100.00
16194;BME280;8204;53.582;10.080;2022-10-03T10:33:59;99703.91;;;17.57;100.00
16194;BME280;8204;53.582;10.080;2022-10-03T10:37:15;99715.78;;;17.55;100.00
16194;BME280;8204;53.582;10.080;2022-10-03T10:43:20;99721.94;;;17.37;100.00
16194;BME280;8204;53.582;10.080;2022-10-03T10:46:29;99721.34;;;17.35;100.00
16194;BME280;8204;53.582;10.080;2022-10-03T10:55:38;99705.91;;;17.73;100.00
16194;BME280;8204;53.582;10.080;2022-10-03T11:04:47;99715.09;;;17.70;100.00
16194;BME280;8204;53.582;10.080;2022-10-03T11:10:34;99708.19;;;17.58;100.00
16194;BME280;8204;53.582;10.080;2022-10-03T11:13:27;99705.06;;;17.61;100.00
16194;BME280;8204;53.582;10.080;2022-10-03T11:16:50;99697.69;;;17.63;100.00
16194;BME280;8204;53.582;10.080;2022-10-03T11:19:53;99692.84;;;17.71;100.00
16194;BME280;8204;53.582;10.080;2022-10-03T11:22:52;99695.41;;;17.78;100.00
16194;BME280;8204;53.582;10.080;2022-10-03T11:26:15;99702.78;;;17.76;100.00
16194;BME280;8204;53.582;10.080;2022-10-03T11:29:19;99707.63;;;17.79;100.00
16194;BME280;8204;53.582;10.080;2022-10-03T11:32:49;99725.59;;;17.77;100.00
16194;BME280;8204;53.582;10.080;2022-10-03T11:38:20;99721.91;;;17.78;100.00
16194;BME280;8204;53.582;10.080;2022-10-03T11:41:03;99725.81;;;17.87;100.00
16194;BME280;8204;53.582;10.080;2022-10-03T11:44:04;99715.44;;;17.85;100.00
16194;BME280;8204;53.582;10.080;2022-10-03T11:46:46;99729.06;;;17.89;100.00
16194;BME280;8204;53.582;10.080;2022-10-03T11:49:39;99727.44;;;17.88;100.00
16194;BME280;8204;53.582;10.080;2022-10-03T11:52:24;99725.81;;;17.87;100.00
16194;BME280;8204;53.582;10.080;2022-10-03T11:55:04;99724.78;;;17.88;100.00
16194;BME280;8204;53.582;10.080;2022-10-03T11:57:37;99730.31;;;17.86;100.00
16194;BME280;8204;53.582;10.080;2022-10-03T12:00:12;99736.41;;;17.87;100.00
16194;BME280;8204;53.582;10.080;2022-10-03T12:03:08;99729.31;;;17.99;100.00
16194;BME280;8204;53.582;10.080;2022-10-03T12:05:47;99725.25;;;18.19;100.00
16194;BME280;8204;53.582;10.080;2022-10-03T12:08:23;99718.72;;;18.22;100.00
16194;BME280;8204;53.582;10.080;2022-10-03T12:11:09;99718.13;;;18.42;100.00
16194;BME280;8204;53.582;10.080;2022-10-03T12:13:50;99712.91;;;18.47;100.00
16194;BME280;8204;53.582;10.080;2022-10-03T12:16:25;99723.53;;;18.47;100.00
16194;BME280;8204;53.582;10.080;2022-10-03T12:18:59;99714.31;;;18.38;100.00
16194;BME280;8204;53.582;10.080;2022-10-03T12:21:43;99702.66;;;18.39;100.00
16194;BME280;8204;53.582;10.080;2022-10-03T12:24:23;99713.63;;;18.32;100.00
16194;BME280;8204;53.582;10.080;2022-10-03T12:26:59;99709.72;;;18.23;100.00
16194;BME280;8204;53.582;10.080;2022-10-03T12:29:35;99735.28;;;18.17;100.00
16194;BME280;8204;53.582;10.080;2022-10-03T12:32:16;99710.75;;;18.22;100.00
16194;BME280;8204;53.582;10.080;2022-10-03T12:34:58;99711.69;;;18.27;100.00
16194;BME280;8204;53.582;10.080;2022-10-03T12:37:40;99714.34;;;18.27;100.00
16194;BME280;8204;53.582;10.080;2022-10-03T12:40:15;99714.53;;;18.26;100.00
16194;BME280;8204;53.582;10.080;2022-10-03T12:42:54;99717.31;;;18.19;100.00
16194;BME280;8204;53.582;10.080;2022-10-03T12:45:31;99706.09;;;18.17;100.00
16194;BME280;8204;53.582;10.080;2022-10-03T12:48:22;99710.63;;;18.17;100.00
16194;BME280;8204;53.582;10.080;2022-10-03T12:50:59;99709.34;;;18.19;100.00
16194;BME280;8204;53.582;10.080;2022-10-03T12:53:42;99710.06;;;18.26;100.00
16194;BME280;8204;53.582;10.080;2022-10-03T12:56:21;99714.66;;;18.19;100.00
16194;BME280;8204;53.582;10.080;2022-10-03T12:59:06;99723.63;;;18.18;100.00
16194;BME280;8204;53.582;10.080;2022-10-03T13:01:49;99707.16;;;18.28;100.00
16194;BME280;8204;53.582;10.080;2022-10-03T13:04:31;99708.88;;;18.33;100.00
16194;BME280;8204;53.582;10.080;2022-10-03T13:07:13;99716.16;;;18.27;100.00
16194;BME280;8204;53.582;10.080;2022-10-03T13:10:07;99727.13;;;18.19;100.00
16194;BME280;8204;53.582;10.080;2022-10-03T13:12:43;99735.50;;;18.16;100.00
16194;BME280;8204;53.582;10.080;2022-10-03T13:15:50;99732.66;;;18.06;100.00
16194;BME280;8204;53.582;10.080;2022-10-03T13:18:41;99732.50;;;18.01;100.00
16194;BME280;8204;53.582;10.080;2022-10-03T13:21:16;99725.38;;;17.90;100.00
16194;BME280;8204;53.582;10.080;2022-10-03T13:23:49;99723.31;;;17.92;100.00
16194;BME280;8204;53.582;10.080;2022-10-03T13:26:31;99721.34;;;17.87;100.00
16194;BME280;8204;53.582;10.080;2022-10-03T13:29:18;99718.00;;;17.80;100.00
16194;BME280;8204;53.582;10.080;2022-10-03T13:32:04;99723.06;;;17.82;100.00
16194;BME280;8204;53.582;10.080;2022-10-03T13:34:49;99718.94;;;17.86;100.00
16194;BME280;8204;53.582;10.080;2022-10-03T13:37:28;99716.13;;;17.81;100.00
16194;BME280;8204;53.582;10.080;2022-10-03T13:40:03;99725.94;;;17.80;100.00
16194;BME280;8204;53.582;10.080;2022-10-03T13:42:40;99724.78;;;17.76;100.00
16194;BME280;8204;53.582;10.080;2022-10-03T13:45:13;99722.91;;;17.65;100.00
16194;BME280;8204;53.582;10.080;2022-10-03T13:47:45;99720.88;;;17.79;100.00
16194;BME280;8204;53.582;10.080;2022-10-03T13:50:20;99722.50;;;17.80;100.00
16194;BME280;8204;53.582;10.080;2022-10-03T13:52:54;99723.88;;;17.82;100.00
16194;BME280;8204;53.582;10.080;2022-10-03T13:55:30;99720.88;;;17.90;100.00
16194;BME280;8204;53.582;10.080;2022-10-03T13:58:30;99714.31;;;17.93;100.00
16194;BME280;8204;53.582;10.080;2022-10-03T14:01:23;99725.03;;;17.98;100.00
16194;BME280;8204;53.582;10.080;2022-10-03T14:04:20;99711.31;;;18.12;100.00
16194;BME280;8204;53.582;10.080;2022-10-03T14:06:57;99723.06;;;18.16;100.00
16194;BME280;8204;53.582;10.080;2022-10-03T14:09:37;99711.88;;;18.14;100.00
16194;BME280;8204;53.582;10.080;2022-10-03T14:12:20;99702.34;;;18.25;100.00
16194;BME280;8204;53.582;10.080;2022-10-03T14:15:11;99726.78;;;18.27;100.00
16194;BME280;8204;53.582;10.080;2022-10-03T14:17:48;99728.88;;;18.25;100.00
16194;BME280;8204;53.582;10.080;2022-10-03T14:20:25;99739.00;;;18.28;100.00
16194;BME280;8204;53.582;10.080;2022-10-03T14:23:06;99737.38;;;18.27;100.00
16194;BME280;8204;53.582;10.080;2022-10-03T14:25:40;99725.41;;;18.24;100.00
16194;BME280;8204;53.582;10.080;2022-10-03T14:28:16;99733.31;;;18.13;100.00
16194;BME280;8204;53.582;10.080;2022-10-03T14:30:59;99724.47;;;18.07;100.00
16194;BME280;8204;53.582;10.080;2022-10-03T14:33:37;99725.16;;;18.03;100.00
16194;BME280;8204;53.582;10.080;2022-10-03T14:36:23;99716.84;;;18.11;100.00
16194;BME280;8204;53.582;10.080;2022-10-03T14:39:07;99720.53;;;18.10;100.00
16194;BME280;8204;53.582;10.080;2022-10-03T14:42:10;99707.16;;;18.16;100.00
16194;BME280;8204;53.582;10.080;2022-10-03T14:44:45;99718.91;;;18.09;100.00
16194;BME280;8204;53.582;10.080;2022-10-03T14:47:18;99721.56;;;18.09;100.00
16194;BME280;8204;53.582;10.080;2022-10-03T14:49:52;99726.63;;;18.10;100.00
16194;BME280;8204;53.582;10.080;2022-10-03T14:52:26;99706.69;;;18.08;100.00
16194;BME280;8204;53.582;10.080;2022-10-03T14:55:06;99702.06;;;18.15;100.00
16194;BME280;8204;53.582;10.080;2022-10-03T14:57:40;99724.69;;;18.06;100.00
16194;BME280;8204;53.582;10.080;2022-10-03T15:00:23;99711.69;;;17.93;100.00
16194;BME280;8204;53.582;10.080;2022-10-03T15:02:55;99705.91;;;17.96;100.00
16194;BME280;8204;53.582;10.080;2022-10-03T15:05:32;99719.38;;;17.94;100.00
16194;BME280;8204;53.582;10.080;2022-10-03T15:08:12;99709.13;;;17.86;100.00
16194;BME280;8204;53.582;10.080;2022-10-03T15:10:43;99713.03;;;17.84;100.00
16194;BME280;8204;53.582;10.080;2022-10-03T15:13:13;99697.94;;;17.84;100.00
16194;BME280;8204;53.582;10.080;2022-10-03T15:15:45;99708.19;;;17.81;100.00
16194;BME280;8204;53.582;10.080;2022-10-03T15:18:21;99698.63;;;17.91;100.00
16194;BME280;8204;53.582;10.080;2022-10-03T15:20:52;99708.44;;;18.02;100.00
16194;BME280;8204;53.582;10.080;2022-10-03T15:23:25;99687.09;;;18.09;100.00
16194;BME280;8204;53.582;10.080;2022-10-03T15:25:56;99691.94;;;18.12;100.00
16194;BME280;8204;53.582;10.080;2022-10-03T15:28:27;99698.63;;;18.03;100.00
16194;BME280;8204;53.582;10.080;2022-10-03T15:31:07;99690.44;;;18.04;100.00
16194;BME280;8204;53.582;10.080;2022-10-03T15:33:43;99692.06;;;18.05;100.00
16194;BME280;8204;53.582;10.080;2022-10-03T15:36:15;99693.34;;;18.03;100.00
16194;BME280;8204;53.582;10.080;2022-10-03T15:38:48;99692.63;;;17.96;100.00
16194;BME280;8204;53.582;10.080;2022-10-03T15:41:25;99705.09;;;17.95;100.00
16194;BME280;8204;53.582;10.080;2022-10-03T15:43:58;99707.75;;;17.84;100.00
16194;BME280;8204;53.582;10.080;2022-10-03T15:46:32;99709.25;;;17.80;100.00
16194;BME280;8204;53.582;10.080;2022-10-03T15:49:06;99696.78;;;17.80;100.00
16194;BME280;8204;53.582;10.080;2022-10-03T15:51:36;99712.94;;;17.79;100.00
16194;BME280;8204;53.582;10.080;2022-10-03T15:54:06;99711.06;;;17.68;100.00
16194;BME280;8204;53.582;10.080;2022-10-03T15:56:38;99703.47;;;17.60;100.00
16194;BME280;8204;53.582;10.080;2022-10-03T15:59:17;99709.31;;;17.62;100.00
16194;BME280;8204;53.582;10.080;2022-10-03T16:01:49;99715.56;;;17.67;100.00
16194;BME280;8204;53.582;10.080;2022-10-03T16:04:24;99704.38;;;17.65;100.00
16194;BME280;8204;53.582;10.080;2022-10-03T16:06:59;99702.41;;;17.72;100.00
16194;BME280;8204;53.582;10.080;2022-10-03T16:09:37;99690.00;;;17.73;100.00
16194;BME280;8204;53.582;10.080;2022-10-03T16:12:33;99693.69;;;17.72;100.00
16194;BME280;8204;53.582;10.080;2022-10-03T16:15:15;99697.25;;;17.66;100.00
16194;BME280;8204;53.582;10.080;2022-10-03T16:17:49;99699.75;;;17.61;100.00
16194;BME280;8204;53.582;10.080;2022-10-03T16:20:24;99699.63;;;17.56;100.00
16194;BME280;8204;53.582;10.080;2022-10-03T16:22:58;99694.22;;;17.51;100.00
16194;BME280;8204;53.582;10.080;2022-10-03T16:25:40;99691.81;;;17.50;100.00
16194;BME280;8204;53.582;10.080;2022-10-03T16:28:13;99704.56;;;17.41;100.00
16194;BME280;8204;53.582;10.080;2022-10-03T16:30:51;99708.59;;;17.32;100.00